KASE

Aspen-Pitkin Co / Sardy Field Airport

Aspen, Colorado, USA
METAR KASE 121753Z VRB03KT 10SM FEW110 00/M14 A2988 RMK AO2 SLP117 T00001144 10000 21128 58018
Observed Flight Rules
Dec-12 @ 17:53 UTC (57 minutes ago) Visual Flight Rules
Wind Visibility Clouds
Variable at 3 knots 10 miles
  • Few at 11,000' AGL
Temperatures Readings
Current 0°C / 32°F
Dewpoint -14°C / 7°F
Humidity 34%
Altimeter 29.88" Hg
Pressure 1011.7 hPa
Elevation 2354
METAR KASE 121753Z VRB03KT 10SM FEW110 00/M14 A2988 RMK AO2 SLP117 T00001144 10000 21128 58018
Observed Flight Rules
Dec-12 @ 17:53 UTC
(57 minutes ago)
VFR
Wind Visibility
Variable at 3 knots 10 miles
Clouds
  • Few at 11,000' AGL
Temperature Dewpoint
0°C / 32°F -14°C / 7°F
Humidity Altimeter Pressure
34% 29.88" Hg 1011.7 hPa